sensor_id;sensor_type;location;lat;lon;timestamp;pressure;altitude;pressure_sealevel;temperature;humidity
41573;BME280;27286;47.870;19.006;2022-11-20T00:01:15;98983.25;;;2.82;76.23
41573;BME280;27286;47.870;19.006;2022-11-20T00:03:48;98961.94;;;2.77;75.96
41573;BME280;27286;47.870;19.006;2022-11-20T00:06:24;98960.22;;;2.77;76.00
41573;BME280;27286;47.870;19.006;2022-11-20T00:09:09;98954.28;;;2.74;76.78
41573;BME280;27286;47.870;19.006;2022-11-20T00:11:36;98938.88;;;2.74;76.69
41573;BME280;27286;47.870;19.006;2022-11-20T00:14:03;98953.22;;;2.84;77.11
41573;BME280;27286;47.870;19.006;2022-11-20T00:16:32;98959.19;;;2.87;77.43
41573;BME280;27286;47.870;19.006;2022-11-20T00:19:10;98942.97;;;2.82;77.39
41573;BME280;27286;47.870;19.006;2022-11-20T00:21:39;98932.75;;;2.79;76.94
41573;BME280;27286;47.870;19.006;2022-11-20T00:24:08;98944.69;;;2.82;77.15
41573;BME280;27286;47.870;19.006;2022-11-20T00:27:05;98944.72;;;2.80;77.45
41573;BME280;27286;47.870;19.006;2022-11-20T00:29:34;98949.94;;;2.77;77.47
41573;BME280;27286;47.870;19.006;2022-11-20T00:32:25;98960.22;;;2.77;77.39
41573;BME280;27286;47.870;19.006;2022-11-20T00:46:54;98957.69;;;2.74;77.07
41573;BME280;27286;47.870;19.006;2022-11-20T00:49:29;98976.34;;;2.85;77.10
41573;BME280;27286;47.870;19.006;2022-11-20T00:52:36;98969.53;;;2.83;76.92
41573;BME280;27286;47.870;19.006;2022-11-20T00:55:08;98982.34;;;2.86;76.27
41573;BME280;27286;47.870;19.006;2022-11-20T00:58:09;98952.69;;;2.66;76.45
41573;BME280;27286;47.870;19.006;2022-11-20T01:01:16;98983.31;;;2.79;76.19
41573;BME280;27286;47.870;19.006;2022-11-20T01:04:15;98966.41;;;2.65;75.84
41573;BME280;27286;47.870;19.006;2022-11-20T01:06:45;98980.91;;;2.69;76.23
41573;BME280;27286;47.870;19.006;2022-11-20T01:09:35;98982.59;;;2.72;75.60
41573;BME280;27286;47.870;19.006;2022-11-20T01:12:40;98992.16;;;2.62;76.07
41573;BME280;27286;47.870;19.006;2022-11-20T01:15:29;99000.72;;;2.63;76.36
41573;BME280;27286;47.870;19.006;2022-11-20T01:18:16;99018.66;;;2.66;76.51
41573;BME280;27286;47.870;19.006;2022-11-20T01:20:46;98988.00;;;2.55;76.21
41573;BME280;27286;47.870;19.006;2022-11-20T01:23:24;98987.97;;;2.57;76.53
41573;BME280;27286;47.870;19.006;2022-11-20T01:25:51;99015.13;;;2.73;76.95
41573;BME280;27286;47.870;19.006;2022-11-20T01:28:19;98985.41;;;2.57;76.79
41573;BME280;27286;47.870;19.006;2022-11-20T01:30:48;98996.38;;;2.65;76.21
41573;BME280;27286;47.870;19.006;2022-11-20T01:33:24;98974.31;;;2.55;76.47
41573;BME280;27286;47.870;19.006;2022-11-20T01:35:50;98976.00;;;2.56;76.27
41573;BME280;27286;47.870;19.006;2022-11-20T01:38:42;98986.91;;;2.68;75.77
41573;BME280;27286;47.870;19.006;2022-11-20T01:41:11;98963.94;;;2.59;75.62
41573;BME280;27286;47.870;19.006;2022-11-20T01:43:58;98971.50;;;2.67;76.07
41573;BME280;27286;47.870;19.006;2022-11-20T01:46:38;98970.66;;;2.66;75.74
41573;BME280;27286;47.870;19.006;2022-11-20T01:49:39;98969.75;;;2.70;76.11
41573;BME280;27286;47.870;19.006;2022-11-20T01:52:46;98940.03;;;2.56;76.33
41573;BME280;27286;47.870;19.006;2022-11-20T01:55:13;98940.75;;;2.62;76.14
41573;BME280;27286;47.870;19.006;2022-11-20T01:57:48;98947.50;;;2.69;76.32
41573;BME280;27286;47.870;19.006;2022-11-20T02:00:23;98929.81;;;2.53;76.18
41573;BME280;27286;47.870;19.006;2022-11-20T02:07:06;98914.31;;;2.56;75.81
41573;BME280;27286;47.870;19.006;2022-11-20T02:24:16;98906.72;;;2.50;76.21
41573;BME280;27286;47.870;19.006;2022-11-20T02:27:02;98910.00;;;2.58;75.81
41573;BME280;27286;47.870;19.006;2022-11-20T02:30:02;98914.16;;;2.65;75.64
41573;BME280;27286;47.870;19.006;2022-11-20T02:32:50;98907.25;;;2.67;75.82
41573;BME280;27286;47.870;19.006;2022-11-20T02:35:42;98905.53;;;2.69;76.12
41573;BME280;27286;47.870;19.006;2022-11-20T02:38:31;98900.41;;;2.67;75.59
41573;BME280;27286;47.870;19.006;2022-11-20T02:41:00;98882.69;;;2.54;75.97
41573;BME280;27286;47.870;19.006;2022-11-20T02:43:31;98893.66;;;2.62;75.85
41573;BME280;27286;47.870;19.006;2022-11-20T02:46:19;98883.44;;;2.59;75.73
41573;BME280;27286;47.870;19.006;2022-11-20T02:49:12;98895.25;;;2.69;75.36
41573;BME280;27286;47.870;19.006;2022-11-20T02:51:43;98868.13;;;2.53;75.00
41573;BME280;27286;47.870;19.006;2022-11-20T02:54:52;98879.19;;;2.58;74.81
41573;BME280;27286;47.870;19.006;2022-11-20T02:57:30;98885.22;;;2.55;75.08
41573;BME280;27286;47.870;19.006;2022-11-20T03:00:06;98886.78;;;2.62;74.73
41573;BME280;27286;47.870;19.006;2022-11-20T03:02:57;98876.63;;;2.56;74.51
41573;BME280;27286;47.870;19.006;2022-11-20T03:05:26;98874.09;;;2.55;74.65
41573;BME280;27286;47.870;19.006;2022-11-20T03:08:19;98874.84;;;2.60;74.82
41573;BME280;27286;47.870;19.006;2022-11-20T03:10:56;98887.63;;;2.63;74.01
41573;BME280;27286;47.870;19.006;2022-11-20T03:13:24;98886.84;;;2.59;74.28
41573;BME280;27286;47.870;19.006;2022-11-20T03:15:50;98871.69;;;2.46;74.09
41573;BME280;27286;47.870;19.006;2022-11-20T03:18:46;98877.66;;;2.46;73.96
41573;BME280;27286;47.870;19.006;2022-11-20T03:21:18;98872.56;;;2.45;74.36
41573;BME280;27286;47.870;19.006;2022-11-20T03:23:44;98864.84;;;2.45;74.13
41573;BME280;27286;47.870;19.006;2022-11-20T03:26:18;98892.91;;;2.57;74.22
41573;BME280;27286;47.870;19.006;2022-11-20T03:29:09;98905.75;;;2.57;74.31
41573;BME280;27286;47.870;19.006;2022-11-20T03:31:53;98909.94;;;2.61;74.01
41573;BME280;27286;47.870;19.006;2022-11-20T03:34:24;98878.53;;;2.45;73.68
41573;BME280;27286;47.870;19.006;2022-11-20T03:36:55;98891.22;;;2.54;73.72
41573;BME280;27286;47.870;19.006;2022-11-20T03:39:51;98907.31;;;2.64;73.69
41573;BME280;27286;47.870;19.006;2022-11-20T03:42:32;98917.72;;;2.58;73.44
41573;BME280;27286;47.870;19.006;2022-11-20T03:45:18;98929.72;;;2.57;73.50
41573;BME280;27286;47.870;19.006;2022-11-20T03:48:07;98933.06;;;2.61;73.03
41573;BME280;27286;47.870;19.006;2022-11-20T03:51:31;98892.13;;;2.50;72.77
41573;BME280;27286;47.870;19.006;2022-11-20T03:54:16;98883.56;;;2.53;72.95
41573;BME280;27286;47.870;19.006;2022-11-20T03:56:55;98894.53;;;2.61;72.44
41573;BME280;27286;47.870;19.006;2022-11-20T03:59:38;98896.31;;;2.57;72.45
41573;BME280;27286;47.870;19.006;2022-11-20T04:02:28;98897.25;;;2.52;73.02
41573;BME280;27286;47.870;19.006;2022-11-20T04:04:59;98910.00;;;2.58;72.76
41573;BME280;27286;47.870;19.006;2022-11-20T04:07:27;98902.34;;;2.56;72.79
41573;BME280;27286;47.870;19.006;2022-11-20T04:11:14;98884.53;;;2.46;72.63
41573;BME280;27286;47.870;19.006;2022-11-20T04:14:05;98904.94;;;2.55;72.27
41573;BME280;27286;47.870;19.006;2022-11-20T04:16:52;98891.28;;;2.50;72.55
41573;BME280;27286;47.870;19.006;2022-11-20T04:19:26;98883.75;;;2.40;72.55
41573;BME280;27286;47.870;19.006;2022-11-20T04:22:17;98901.53;;;2.53;72.41
41573;BME280;27286;47.870;19.006;2022-11-20T04:24:42;98861.50;;;2.41;72.27
41573;BME280;27286;47.870;19.006;2022-11-20T04:27:10;98863.28;;;2.37;72.31
41573;BME280;27286;47.870;19.006;2022-11-20T04:29:47;98874.34;;;2.41;71.98
41573;BME280;27286;47.870;19.006;2022-11-20T04:32:18;98880.41;;;2.37;71.77
41573;BME280;27286;47.870;19.006;2022-11-20T04:35:14;98892.31;;;2.41;71.84
41573;BME280;27286;47.870;19.006;2022-11-20T04:37:40;98865.13;;;2.28;71.90
41573;BME280;27286;47.870;19.006;2022-11-20T04:40:27;98883.81;;;2.37;72.06
41573;BME280;27286;47.870;19.006;2022-11-20T04:42:56;98864.34;;;2.24;71.90
41573;BME280;27286;47.870;19.006;2022-11-20T04:45:56;98856.47;;;2.33;72.12
41573;BME280;27286;47.870;19.006;2022-11-20T04:48:54;98831.00;;;2.23;71.81
41573;BME280;27286;47.870;19.006;2022-11-20T04:55:10;98815.53;;;2.24;71.97
41573;BME280;27286;47.870;19.006;2022-11-20T04:58:02;98824.88;;;2.28;71.93
41573;BME280;27286;47.870;19.006;2022-11-20T05:00:35;98829.94;;;2.33;72.19
41573;BME280;27286;47.870;19.006;2022-11-20T05:03:27;98828.31;;;2.29;72.36
41573;BME280;27286;47.870;19.006;2022-11-20T05:05:56;98820.72;;;2.23;72.45
41573;BME280;27286;47.870;19.006;2022-11-20T05:08:24;98839.34;;;2.35;72.69
41573;BME280;27286;47.870;19.006;2022-11-20T05:11:05;98840.16;;;2.37;71.63
41573;BME280;27286;47.870;19.006;2022-11-20T05:13:35;98828.34;;;2.26;71.83
41573;BME280;27286;47.870;19.006;2022-11-20T05:16:27;98838.50;;;2.32;71.51
41573;BME280;27286;47.870;19.006;2022-11-20T05:19:02;98823.28;;;2.23;71.89
41573;BME280;27286;47.870;19.006;2022-11-20T05:21:33;98845.31;;;2.36;71.23
41573;BME280;27286;47.870;19.006;2022-11-20T05:24:01;98822.34;;;2.27;71.49
41573;BME280;27286;47.870;19.006;2022-11-20T05:26:30;98838.47;;;2.35;71.52
41573;BME280;27286;47.870;19.006;2022-11-20T05:29:09;98830.94;;;2.26;71.63
41573;BME280;27286;47.870;19.006;2022-11-20T05:31:39;98843.81;;;2.24;72.03
41573;BME280;27286;47.870;19.006;2022-11-20T05:34:13;98866.78;;;1.78;71.56
41573;BME280;27286;47.870;19.006;2022-11-20T05:36:46;98837.91;;;1.01;74.74
41573;BME280;27286;47.870;19.006;2022-11-20T05:39:18;98837.97;;;0.96;77.53
41573;BME280;27286;47.870;19.006;2022-11-20T05:41:51;98864.13;;;1.24;78.62
41573;BME280;27286;47.870;19.006;2022-11-20T05:45:03;98848.19;;;0.99;77.35
41573;BME280;27286;47.870;19.006;2022-11-20T05:47:33;98821.16;;;0.75;78.83
41573;BME280;27286;47.870;19.006;2022-11-20T05:50:00;98831.34;;;0.80;78.74
41573;BME280;27286;47.870;19.006;2022-11-20T05:52:31;98822.13;;;0.64;79.35
41573;BME280;27286;47.870;19.006;2022-11-20T05:55:18;98848.44;;;0.78;80.03
41573;BME280;27286;47.870;19.006;2022-11-20T05:57:52;98842.59;;;0.68;79.75
41573;BME280;27286;47.870;19.006;2022-11-20T06:00:25;98847.75;;;0.64;80.02
41573;BME280;27286;47.870;19.006;2022-11-20T06:03:17;98838.47;;;0.53;81.48
41573;BME280;27286;47.870;19.006;2022-11-20T06:16:34;98833.41;;;0.47;82.04
41573;BME280;27286;47.870;19.006;2022-11-20T06:19:27;98830.81;;;0.49;81.48
41573;BME280;27286;47.870;19.006;2022-11-20T06:22:00;98829.97;;;0.48;82.42
41573;BME280;27286;47.870;19.006;2022-11-20T06:24:26;98852.97;;;0.56;82.13
41573;BME280;27286;47.870;19.006;2022-11-20T06:27:15;98830.03;;;0.44;82.74
41573;BME280;27286;47.870;19.006;2022-11-20T06:32:43;98864.06;;;0.56;83.23
41573;BME280;27286;47.870;19.006;2022-11-20T06:35:34;98839.38;;;0.46;82.99
41573;BME280;27286;47.870;19.006;2022-11-20T06:38:32;98845.34;;;0.48;83.04
41573;BME280;27286;47.870;19.006;2022-11-20T06:58:02;98875.38;;;1.12;81.53
41573;BME280;27286;47.870;19.006;2022-11-20T07:01:13;98898.41;;;1.15;79.75
41573;BME280;27286;47.870;19.006;2022-11-20T07:04:17;98891.47;;;1.25;80.11
41573;BME280;27286;47.870;19.006;2022-11-20T07:07:05;98879.44;;;1.29;80.71
41573;BME280;27286;47.870;19.006;2022-11-20T07:09:57;98862.53;;;1.14;78.69
41573;BME280;27286;47.870;19.006;2022-11-20T07:12:26;98891.44;;;1.27;79.20
41573;BME280;27286;47.870;19.006;2022-11-20T07:15:00;98877.66;;;1.35;78.89
41573;BME280;27286;47.870;19.006;2022-11-20T07:17:30;98886.09;;;1.43;77.37
41573;BME280;27286;47.870;19.006;2022-11-20T07:19:58;98860.59;;;1.31;77.26
41573;BME280;27286;47.870;19.006;2022-11-20T07:22:28;98881.06;;;1.36;78.60
41573;BME280;27286;47.870;19.006;2022-11-20T07:25:16;98861.25;;;1.45;77.71
41573;BME280;27286;47.870;19.006;2022-11-20T07:27:48;98873.16;;;1.53;76.18
41573;BME280;27286;47.870;19.006;2022-11-20T07:30:39;98876.59;;;1.50;76.39
41573;BME280;27286;47.870;19.006;2022-11-20T07:33:08;98876.69;;;1.44;76.44
41573;BME280;27286;47.870;19.006;2022-11-20T07:35:37;98875.56;;;1.63;76.21
41573;BME280;27286;47.870;19.006;2022-11-20T07:38:10;98883.19;;;1.66;74.14
41573;BME280;27286;47.870;19.006;2022-11-20T07:40:37;98860.31;;;1.51;74.83
41573;BME280;27286;47.870;19.006;2022-11-20T07:43:28;98882.31;;;1.70;75.39
41573;BME280;27286;47.870;19.006;2022-11-20T07:46:03;98876.31;;;1.71;75.17
41573;BME280;27286;47.870;19.006;2022-11-20T07:58:45;98856.28;;;1.93;75.38
41573;BME280;27286;47.870;19.006;2022-11-20T08:01:10;98880.97;;;2.02;76.86
41573;BME280;27286;47.870;19.006;2022-11-20T08:03:38;98878.25;;;2.11;76.36
41573;BME280;27286;47.870;19.006;2022-11-20T08:06:07;98867.03;;;2.17;75.66
41573;BME280;27286;47.870;19.006;2022-11-20T08:08:53;98867.91;;;2.16;75.45
41573;BME280;27286;47.870;19.006;2022-11-20T08:11:41;98880.75;;;2.14;75.94
41573;BME280;27286;47.870;19.006;2022-11-20T08:14:25;98878.06;;;2.23;72.97
41573;BME280;27286;47.870;19.006;2022-11-20T08:16:52;98871.03;;;2.33;72.74
41573;BME280;27286;47.870;19.006;2022-11-20T08:19:19;98880.91;;;2.57;73.16
41573;BME280;27286;47.870;19.006;2022-11-20T08:21:45;98862.88;;;2.59;73.11
41573;BME280;27286;47.870;19.006;2022-11-20T08:24:11;98884.72;;;2.81;72.58
41573;BME280;27286;47.870;19.006;2022-11-20T08:26:38;98882.03;;;2.89;72.01
41573;BME280;27286;47.870;19.006;2022-11-20T08:29:04;98880.97;;;2.99;71.13
41573;BME280;27286;47.870;19.006;2022-11-20T08:31:30;98880.72;;;3.11;70.82
41573;BME280;27286;47.870;19.006;2022-11-20T08:33:58;98883.97;;;3.21;70.00
41573;BME280;27286;47.870;19.006;2022-11-20T08:36:24;98880.47;;;3.23;69.47
41573;BME280;27286;47.870;19.006;2022-11-20T08:38:57;98891.50;;;3.28;69.13
41573;BME280;27286;47.870;19.006;2022-11-20T08:42:06;98892.09;;;3.43;68.55
41573;BME280;27286;47.870;19.006;2022-11-20T08:44:36;98898.03;;;3.45;69.14
41573;BME280;27286;47.870;19.006;2022-11-20T08:47:07;98904.94;;;3.43;68.44
41573;BME280;27286;47.870;19.006;2022-11-20T08:49:35;98903.28;;;3.40;68.08
41573;BME280;27286;47.870;19.006;2022-11-20T08:52:30;98907.63;;;3.38;67.78
41573;BME280;27286;47.870;19.006;2022-11-20T08:55:03;98899.94;;;3.35;67.64
41573;BME280;27286;47.870;19.006;2022-11-20T08:57:32;98901.66;;;3.36;68.15
41573;BME280;27286;47.870;19.006;2022-11-20T09:00:20;98896.53;;;3.36;67.68
41573;BME280;27286;47.870;19.006;2022-11-20T09:02:46;98889.72;;;3.32;68.33
41573;BME280;27286;47.870;19.006;2022-11-20T09:05:18;98899.84;;;3.41;67.49
41573;BME280;27286;47.870;19.006;2022-11-20T09:08:08;98890.50;;;3.37;67.85
41573;BME280;27286;47.870;19.006;2022-11-20T09:10:34;98902.31;;;3.46;67.78
41573;BME280;27286;47.870;19.006;2022-11-20T09:13:03;98908.19;;;3.51;68.17
41573;BME280;27286;47.870;19.006;2022-11-20T09:15:29;98898.59;;;3.59;68.53
41573;BME280;27286;47.870;19.006;2022-11-20T09:17:58;98890.81;;;3.62;67.97
41573;BME280;27286;47.870;19.006;2022-11-20T09:20:45;98904.22;;;3.76;68.03
41573;BME280;27286;47.870;19.006;2022-11-20T09:23:50;98901.53;;;3.81;68.57
41573;BME280;27286;47.870;19.006;2022-11-20T09:26:54;98912.38;;;3.95;68.19
41573;BME280;27286;47.870;19.006;2022-11-20T09:32:48;98902.75;;;4.02;68.53
41573;BME280;27286;47.870;19.006;2022-11-20T09:35:15;98901.84;;;4.06;68.84
41573;BME280;27286;47.870;19.006;2022-11-20T09:37:45;98913.84;;;4.07;69.48
41573;BME280;27286;47.870;19.006;2022-11-20T09:40:31;98928.25;;;4.14;70.72
41573;BME280;27286;47.870;19.006;2022-11-20T09:43:19;98916.09;;;4.20;70.94
41573;BME280;27286;47.870;19.006;2022-11-20T09:46:29;98912.56;;;4.25;70.80
41573;BME280;27286;47.870;19.006;2022-11-20T09:49:31;98913.91;;;4.39;69.77
41573;BME280;27286;47.870;19.006;2022-11-20T09:55:31;98898.75;;;4.61;69.32
41573;BME280;27286;47.870;19.006;2022-11-20T09:57:59;98881.63;;;4.59;69.81
41573;BME280;27286;47.870;19.006;2022-11-20T10:00:26;98876.56;;;4.56;69.11
41573;BME280;27286;47.870;19.006;2022-11-20T10:05:29;98888.84;;;4.78;70.22
41573;BME280;27286;47.870;19.006;2022-11-20T10:08:28;98885.97;;;4.89;69.88
41573;BME280;27286;47.870;19.006;2022-11-20T10:11:41;98889.06;;;5.02;69.98
41573;BME280;27286;47.870;19.006;2022-11-20T10:14:26;98868.16;;;5.11;69.82
41573;BME280;27286;47.870;19.006;2022-11-20T10:20:01;98879.59;;;5.32;69.03
41573;BME280;27286;47.870;19.006;2022-11-20T10:28:06;98859.47;;;5.44;68.96
41573;BME280;27286;47.870;19.006;2022-11-20T10:30:42;98860.19;;;5.48;68.41
41573;BME280;27286;47.870;19.006;2022-11-20T10:33:27;98847.25;;;5.50;68.27
41573;BME280;27286;47.870;19.006;2022-11-20T10:36:10;98856.50;;;5.57;67.53
41573;BME280;27286;47.870;19.006;2022-11-20T10:38:43;98840.34;;;5.50;65.90
41573;BME280;27286;47.870;19.006;2022-11-20T10:41:18;98849.53;;;5.60;66.09
41573;BME280;27286;47.870;19.006;2022-11-20T10:44:04;98847.34;;;5.74;65.33
41573;BME280;27286;47.870;19.006;2022-11-20T10:46:56;98846.22;;;5.83;64.63
41573;BME280;27286;47.870;19.006;2022-11-20T10:49:24;98840.03;;;5.87;64.21
41573;BME280;27286;47.870;19.006;2022-11-20T10:52:00;98854.41;;;5.97;64.10
41573;BME280;27286;47.870;19.006;2022-11-20T10:54:53;98849.03;;;6.03;63.86
41573;BME280;27286;47.870;19.006;2022-11-20T10:57:51;98868.03;;;6.29;62.83
41573;BME280;27286;47.870;19.006;2022-11-20T11:00:19;98843.72;;;6.34;63.42
41573;BME280;27286;47.870;19.006;2022-11-20T11:02:53;98852.44;;;6.57;63.83
41573;BME280;27286;47.870;19.006;2022-11-20T11:07:46;98845.66;;;7.26;60.39
41573;BME280;27286;47.870;19.006;2022-11-20T11:10:17;98827.91;;;7.39;60.56
41573;BME280;27286;47.870;19.006;2022-11-20T11:12:47;98823.16;;;7.50;58.73
41573;BME280;27286;47.870;19.006;2022-11-20T11:15:38;98834.38;;;7.72;58.59
41573;BME280;27286;47.870;19.006;2022-11-20T11:18:04;98833.28;;;8.00;57.97
41573;BME280;27286;47.870;19.006;2022-11-20T11:20:30;98838.81;;;8.12;56.96
41573;BME280;27286;47.870;19.006;2022-11-20T11:22:58;98826.13;;;8.27;57.00
41573;BME280;27286;47.870;19.006;2022-11-20T11:25:32;98839.47;;;8.60;56.25
41573;BME280;27286;47.870;19.006;2022-11-20T11:28:03;98840.50;;;8.76;55.14
41573;BME280;27286;47.870;19.006;2022-11-20T11:30:39;98838.53;;;8.81;55.17
41573;BME280;27286;47.870;19.006;2022-11-20T11:33:09;98821.09;;;9.03;54.25
41573;BME280;27286;47.870;19.006;2022-11-20T11:35:44;98829.50;;;9.29;54.04
41573;BME280;27286;47.870;19.006;2022-11-20T11:38:17;98825.31;;;9.62;52.46
41573;BME280;27286;47.870;19.006;2022-11-20T11:40:44;98830.38;;;10.02;52.10
41573;BME280;27286;47.870;19.006;2022-11-20T11:43:21;98829.16;;;10.28;50.71
41573;BME280;27286;47.870;19.006;2022-11-20T11:46:25;98830.56;;;10.16;50.23
41573;BME280;27286;47.870;19.006;2022-11-20T12:00:20;98822.78;;;12.71;44.82
41573;BME280;27286;47.870;19.006;2022-11-20T12:07:47;98809.44;;;12.01;45.06
41573;BME280;27286;47.870;19.006;2022-11-20T12:10:38;98814.00;;;11.51;47.04
41573;BME280;27286;47.870;19.006;2022-11-20T12:15:42;98799.66;;;10.62;48.11
41573;BME280;27286;47.870;19.006;2022-11-20T12:18:16;98787.81;;;10.39;48.67
41573;BME280;27286;47.870;19.006;2022-11-20T12:20:53;98798.34;;;10.18;49.57
41573;BME280;27286;47.870;19.006;2022-11-20T12:23:35;98785.75;;;10.28;50.31
41573;BME280;27286;47.870;19.006;2022-11-20T12:26:14;98792.16;;;10.55;50.23
41573;BME280;27286;47.870;19.006;2022-11-20T12:29:02;98776.09;;;10.47;49.82
41573;BME280;27286;47.870;19.006;2022-11-20T12:31:34;98790.31;;;10.58;50.08
41573;BME280;27286;47.870;19.006;2022-11-20T12:37:07;98794.28;;;10.98;48.36
41573;BME280;27286;47.870;19.006;2022-11-20T12:39:41;98786.66;;;10.95;47.81
41573;BME280;27286;47.870;19.006;2022-11-20T12:45:31;98794.09;;;10.35;49.06
41573;BME280;27286;47.870;19.006;2022-11-20T12:51:11;98793.34;;;8.66;53.55
41573;BME280;27286;47.870;19.006;2022-11-20T12:53:59;98795.59;;;8.33;54.81
41573;BME280;27286;47.870;19.006;2022-11-20T12:56:49;98794.47;;;7.98;56.02
41573;BME280;27286;47.870;19.006;2022-11-20T13:08:29;98770.91;;;8.65;54.67
41573;BME280;27286;47.870;19.006;2022-11-20T13:14:24;98771.56;;;8.50;55.44
41573;BME280;27286;47.870;19.006;2022-11-20T13:19:52;98770.41;;;7.74;57.89
41573;BME280;27286;47.870;19.006;2022-11-20T13:22:26;98774.97;;;7.46;58.60
41573;BME280;27286;47.870;19.006;2022-11-20T13:24:52;98774.22;;;7.20;59.97
41573;BME280;27286;47.870;19.006;2022-11-20T13:27:20;98779.59;;;7.16;60.51
41573;BME280;27286;47.870;19.006;2022-11-20T13:29:58;98779.97;;;7.05;61.12
41573;BME280;27286;47.870;19.006;2022-11-20T13:32:25;98784.78;;;6.92;61.75
41573;BME280;27286;47.870;19.006;2022-11-20T13:35:00;98776.94;;;6.71;62.32
41573;BME280;27286;47.870;19.006;2022-11-20T13:37:33;98786.84;;;6.83;62.63
41573;BME280;27286;47.870;19.006;2022-11-20T13:40:22;98787.97;;;6.76;62.60
41573;BME280;27286;47.870;19.006;2022-11-20T13:45:25;98783.53;;;7.03;62.06
41573;BME280;27286;47.870;19.006;2022-11-20T13:47:52;98789.75;;;7.20;61.84
41573;BME280;27286;47.870;19.006;2022-11-20T13:50:19;98787.84;;;7.26;61.50
41573;BME280;27286;47.870;19.006;2022-11-20T13:55:54;98792.78;;;7.32;61.68
41573;BME280;27286;47.870;19.006;2022-11-20T14:01:42;98784.81;;;8.02;60.00
41573;BME280;27286;47.870;19.006;2022-11-20T14:04:07;98778.06;;;8.40;58.40
41573;BME280;27286;47.870;19.006;2022-11-20T14:06:48;98776.47;;;8.95;57.25
41573;BME280;27286;47.870;19.006;2022-11-20T14:09:31;98765.56;;;9.08;56.46
41573;BME280;27286;47.870;19.006;2022-11-20T14:11:58;98767.41;;;8.85;57.27
41573;BME280;27286;47.870;19.006;2022-11-20T14:14:28;98752.97;;;8.40;58.09
41573;BME280;27286;47.870;19.006;2022-11-20T14:17:22;98768.75;;;8.14;59.45
41573;BME280;27286;47.870;19.006;2022-11-20T14:19:50;98754.88;;;7.95;59.99
41573;BME280;27286;47.870;19.006;2022-11-20T14:22:22;98771.72;;;8.05;59.46
41573;BME280;27286;47.870;19.006;2022-11-20T14:24:48;98783.91;;;8.03;59.80
41573;BME280;27286;47.870;19.006;2022-11-20T14:27:17;98789.84;;;7.84;60.35
41573;BME280;27286;47.870;19.006;2022-11-20T14:29:48;98773.91;;;7.73;60.41
41573;BME280;27286;47.870;19.006;2022-11-20T14:32:19;98783.28;;;7.76;59.62
41573;BME280;27286;47.870;19.006;2022-11-20T14:34:48;98791.94;;;7.53;60.38
41573;BME280;27286;47.870;19.006;2022-11-20T14:37:24;98786.00;;;7.29;61.09
41573;BME280;27286;47.870;19.006;2022-11-20T14:39:54;98794.50;;;7.09;61.76
41573;BME280;27286;47.870;19.006;2022-11-20T14:42:25;98796.72;;;6.72;62.97
41573;BME280;27286;47.870;19.006;2022-11-20T14:44:55;98800.97;;;6.49;64.24
41573;BME280;27286;47.870;19.006;2022-11-20T14:47:23;98800.50;;;6.38;64.93
41573;BME280;27286;47.870;19.006;2022-11-20T14:49:51;98796.66;;;5.98;65.77
41573;BME280;27286;47.870;19.006;2022-11-20T14:52:19;98790.75;;;5.40;67.35
41573;BME280;27286;47.870;19.006;2022-11-20T14:54:50;98806.25;;;5.40;68.66
41573;BME280;27286;47.870;19.006;2022-11-20T14:57:26;98811.44;;;5.39;70.30
41573;BME280;27286;47.870;19.006;2022-11-20T15:00:03;98807.84;;;5.15;70.96
41573;BME280;27286;47.870;19.006;2022-11-20T15:02:30;98807.19;;;5.08;71.06
41573;BME280;27286;47.870;19.006;2022-11-20T15:05:00;98806.44;;;5.05;70.44
41573;BME280;27286;47.870;19.006;2022-11-20T15:07:37;98795.88;;;4.83;71.78
41573;BME280;27286;47.870;19.006;2022-11-20T15:12:49;98791.34;;;4.91;70.91
41573;BME280;27286;47.870;19.006;2022-11-20T15:15:20;98809.66;;;4.82;71.38
41573;BME280;27286;47.870;19.006;2022-11-20T15:17:46;98808.09;;;4.76;71.95
41573;BME280;27286;47.870;19.006;2022-11-20T15:20:14;98809.66;;;4.82;71.72
41573;BME280;27286;47.870;19.006;2022-11-20T15:22:41;98816.63;;;4.78;71.77
41573;BME280;27286;47.870;19.006;2022-11-20T15:25:14;98818.91;;;4.58;72.65
41573;BME280;27286;47.870;19.006;2022-11-20T15:27:41;98824.69;;;4.66;72.56
41573;BME280;27286;47.870;19.006;2022-11-20T15:30:18;98824.22;;;4.52;72.87
41573;BME280;27286;47.870;19.006;2022-11-20T15:32:45;98821.50;;;4.26;74.81
41573;BME280;27286;47.870;19.006;2022-11-20T15:35:11;98832.63;;;4.26;75.28
41573;BME280;27286;47.870;19.006;2022-11-20T15:37:37;98819.41;;;4.40;74.18
41573;BME280;27286;47.870;19.006;2022-11-20T15:40:04;98830.69;;;4.34;74.53
41573;BME280;27286;47.870;19.006;2022-11-20T15:42:29;98815.75;;;4.14;74.73
41573;BME280;27286;47.870;19.006;2022-11-20T15:44:55;98834.06;;;4.36;75.22
41573;BME280;27286;47.870;19.006;2022-11-20T15:47:29;98816.25;;;4.29;74.74
41573;BME280;27286;47.870;19.006;2022-11-20T15:49:56;98833.53;;;4.25;75.43
41573;BME280;27286;47.870;19.006;2022-11-20T15:52:21;98819.91;;;4.20;75.34
41573;BME280;27286;47.870;19.006;2022-11-20T15:54:47;98820.72;;;4.22;75.40
41573;BME280;27286;47.870;19.006;2022-11-20T15:57:12;98830.28;;;4.17;75.92
41573;BME280;27286;47.870;19.006;2022-11-20T15:59:38;98834.75;;;4.10;76.47
41573;BME280;27286;47.870;19.006;2022-11-20T16:04:52;98836.41;;;4.13;76.18
41573;BME280;27286;47.870;19.006;2022-11-20T16:07:18;98819.06;;;3.84;76.55
41573;BME280;27286;47.870;19.006;2022-11-20T16:09:43;98825.97;;;3.82;77.17
41573;BME280;27286;47.870;19.006;2022-11-20T16:12:09;98834.22;;;3.96;76.87
41573;BME280;27286;47.870;19.006;2022-11-20T16:14:54;98817.50;;;3.78;76.92
41573;BME280;27286;47.870;19.006;2022-11-20T16:17:45;98821.28;;;3.63;78.11
41573;BME280;27286;47.870;19.006;2022-11-20T16:20:11;98812.44;;;3.75;77.92
41573;BME280;27286;47.870;19.006;2022-11-20T16:22:36;98810.97;;;3.63;77.85
41573;BME280;27286;47.870;19.006;2022-11-20T16:25:02;98807.09;;;3.46;78.36
41573;BME280;27286;47.870;19.006;2022-11-20T16:27:27;98811.34;;;3.47;78.72